Time;durP1;ratioP1;P1;durP2;ratioP2;P2;SDS_P1;SDS_P2;PMS_P1;PMS_P2;Temp;Humidity;BMP_temperature;BMP_pressure;BME280_temperature;BME280_humidity;BME280_pressure;Samples;Min_cycle;Max_cycle;Signal;HPM_P1;HPM_P2
2022/09/20 00:00:42;;;;;;;10.85;6.28;;;14.00;99.90;;;;;;5106618;28;20042;-71
2022/09/20 00:03:09;;;;;;;9.50;6.00;;;14.00;99.90;;;;;;5104021;28;20047;-70
2022/09/20 00:05:40;;;;;;;10.30;5.97;;;14.00;99.90;;;;;;5108321;28;20058;-71
2022/09/20 00:08:10;;;;;;;9.40;5.88;;;14.00;99.90;;;;;;5088586;28;20028;-71
2022/09/20 00:10:38;;;;;;;9.20;6.20;;;14.00;99.90;;;;;;5090026;28;20058;-70
2022/09/20 00:13:05;;;;;;;9.40;5.88;;;14.00;99.90;;;;;;5108675;28;20561;-70
2022/09/20 00:15:31;;;;;;;9.75;6.00;;;14.10;99.90;;;;;;5102628;28;20060;-70
2022/09/20 00:17:57;;;;;;;10.65;7.13;;;14.10;99.90;;;;;;5108771;28;20027;-69
2022/09/20 00:20:24;;;;;;;12.70;6.88;;;14.00;99.90;;;;;;5109496;28;20580;-70
2022/09/20 00:22:49;;;;;;;10.35;6.70;;;14.00;99.90;;;;;;5108881;28;20118;-70
2022/09/20 00:25:16;;;;;;;10.10;6.78;;;14.00;99.90;;;;;;5112026;28;20151;-71
2022/09/20 00:27:42;;;;;;;10.50;6.95;;;14.00;99.90;;;;;;5106018;28;20027;-70
2022/09/20 00:30:08;;;;;;;9.77;6.68;;;14.00;99.90;;;;;;5106500;28;20120;-70
2022/09/20 00:32:34;;;;;;;13.75;7.07;;;14.00;99.90;;;;;;5095047;28;20078;-71
2022/09/20 00:35:11;;;;;;;12.48;6.60;;;14.00;99.90;;;;;;5101145;27;20148;-70
2022/09/20 00:37:39;;;;;;;11.27;6.82;;;14.00;99.90;;;;;;5094795;28;20059;-71
2022/09/20 00:40:12;;;;;;;11.75;7.32;;;13.90;99.90;;;;;;5113515;27;20027;-70
2022/09/20 00:42:38;;;;;;;11.02;6.75;;;14.00;99.90;;;;;;5116105;27;20059;-70
2022/09/20 00:45:18;;;;;;;11.50;7.32;;;13.90;99.90;;;;;;5115149;27;20031;-70
2022/09/20 00:47:47;;;;;;;;;;;13.90;99.90;;;;;;5112481;27;20035;-71
2022/09/20 00:50:25;;;;;;;10.82;6.10;;;13.90;99.90;;;;;;5116850;27;19927;-71
2022/09/20 00:52:59;;;;;;;12.27;6.20;;;13.90;99.90;;;;;;5094353;27;20043;-70
2022/09/20 00:55:26;;;;;;;9.82;5.95;;;13.90;99.90;;;;;;5112435;27;20034;-70
2022/09/20 00:57:53;;;;;;;10.23;6.32;;;13.90;99.90;;;;;;5111610;27;20153;-70
2022/09/20 01:00:19;;;;;;;12.73;7.03;;;13.90;99.90;;;;;;5113691;27;20027;-70
2022/09/20 01:02:52;;;;;;;9.50;5.80;;;13.90;99.90;;;;;;5100039;27;20031;-70
2022/09/20 01:05:18;;;;;;;9.85;6.32;;;13.80;99.90;;;;;;5111238;27;20508;-70
2022/09/20 01:07:46;;;;;;;8.93;5.88;;;13.80;99.90;;;;;;5091844;27;20031;-69
2022/09/20 01:10:11;;;;;;;10.95;6.05;;;13.80;99.90;;;;;;5109214;27;20032;-70
2022/09/20 01:12:39;;;;;;;10.55;6.28;;;13.80;99.90;;;;;;5118806;27;20061;-70
2022/09/20 01:15:07;;;;;;;10.77;5.93;;;13.80;99.90;;;;;;5092260;28;20024;-70
2022/09/20 01:17:36;;;;;;;9.80;5.90;;;13.70;99.90;;;;;;5111812;27;20054;-70
2022/09/20 01:20:13;;;;;;;8.07;5.80;;;13.70;99.90;;;;;;5093487;28;20054;-71
2022/09/20 01:23:01;;;;;;;10.30;6.28;;;13.70;99.90;;;;;;5114059;27;20122;-70
2022/09/20 01:25:57;;;;;;;11.60;5.90;;;13.60;99.90;;;;;;5090832;28;20034;-70
2022/09/20 01:28:23;;;;;;;11.52;5.93;;;13.60;99.90;;;;;;5093533;28;20051;-70
2022/09/20 01:30:52;;;;;;;9.40;5.88;;;13.60;99.90;;;;;;5110368;27;20039;-70
2022/09/20 01:33:18;;;;;;;9.20;5.72;;;13.60;99.90;;;;;;5110882;27;20040;-70
2022/09/20 01:35:46;;;;;;;7.70;5.00;;;13.60;99.90;;;;;;5115307;27;20032;-70
2022/09/20 01:38:33;;;;;;;8.73;5.68;;;13.60;99.90;;;;;;5096317;28;20114;-70
2022/09/20 01:41:22;;;;;;;10.68;5.90;;;13.60;99.90;;;;;;5113999;27;20027;-70
2022/09/20 01:43:52;;;;;;;8.40;5.67;;;13.60;99.90;;;;;;5112399;27;20111;-70
2022/09/20 01:46:33;;;;;;;9.27;5.55;;;13.60;99.90;;;;;;5093587;28;20050;-71
2022/09/20 01:49:05;;;;;;;7.72;5.43;;;13.60;99.90;;;;;;5116325;27;20035;-70
2022/09/20 01:51:55;;;;;;;9.35;5.90;;;13.60;99.90;;;;;;5107983;28;20035;-71
2022/09/20 01:54:36;;;;;;;8.23;5.18;;;13.60;99.90;;;;;;5115712;27;20043;-70
2022/09/20 01:57:39;;;;;;;8.35;5.95;;;13.50;99.90;;;;;;5110362;27;20019;-70
2022/09/20 02:00:25;;;;;;;8.50;5.30;;;13.50;99.90;;;;;;5112561;27;20131;-70
2022/09/20 02:03:25;;;;;;;9.07;5.20;;;13.50;99.90;;;;;;5090723;28;20031;-70
2022/09/20 02:06:09;;;;;;;9.43;5.82;;;13.40;99.90;;;;;;5113174;27;20044;-69
2022/09/20 02:09:29;;;;;;;8.77;5.70;;;13.50;99.90;;;;;;5109538;27;20062;-69
2022/09/20 02:12:09;;;;;;;8.48;5.85;;;13.40;99.90;;;;;;5027892;28;20052;-69
2022/09/20 02:15:01;;;;;;;8.80;5.63;;;13.30;99.90;;;;;;5046647;28;20037;-70
2022/09/20 02:17:52;;;;;;;10.27;5.63;;;13.30;99.90;;;;;;5045753;28;20060;-70
2022/09/20 02:20:45;;;;;;;8.25;5.28;;;13.30;99.90;;;;;;5051756;28;20079;-71
2022/09/20 02:23:31;;;;;;;9.80;5.88;;;13.30;99.90;;;;;;5034905;28;20045;-70
2022/09/20 02:26:15;;;;;;;8.52;5.30;;;13.30;99.90;;;;;;5049789;28;20091;-70
2022/09/20 02:28:58;;;;;;;10.15;5.40;;;13.30;99.90;;;;;;5023500;28;20060;-70
2022/09/20 02:31:54;;;;;;;8.82;6.05;;;13.30;99.90;;;;;;5026532;28;20044;-71
2022/09/20 02:35:05;;;;;;;8.57;5.70;;;13.20;99.90;;;;;;5046733;28;20396;-70
2022/09/20 02:37:58;;;;;;;7.80;5.38;;;13.20;99.90;;;;;;5043910;28;20067;-70
2022/09/20 02:40:45;;;;;;;12.25;6.07;;;13.20;99.90;;;;;;5027207;28;20044;-70
2022/09/20 02:43:23;;;;;;;9.38;6.18;;;13.20;99.90;;;;;;5044314;28;20049;-70
2022/09/20 02:45:49;;;;;;;9.98;6.43;;;13.10;99.90;;;;;;5044903;28;20040;-70
2022/09/20 02:48:19;;;;;;;9.38;6.00;;;13.00;99.90;;;;;;5087901;27;20047;-69
2022/09/20 02:51:09;;;;;;;9.43;5.88;;;13.00;99.90;;;;;;5087952;28;20051;-69
2022/09/20 02:54:12;;;;;;;9.98;6.30;;;13.00;99.90;;;;;;5114788;27;20027;-69
2022/09/20 02:57:02;;;;;;;10.05;6.45;;;12.90;99.90;;;;;;5100565;28;20031;-70
2022/09/20 02:59:39;;;;;;;;;;;12.90;99.90;;;;;;5107967;28;20028;-69
2022/09/20 03:02:15;;;;;;;10.02;6.10;;;12.90;99.90;;;;;;5110467;27;20002;-68
2022/09/20 03:05:10;;;;;;;7.97;5.85;;;12.90;99.90;;;;;;5090831;28;20027;-68
2022/09/20 03:07:46;;;;;;;11.05;6.60;;;12.80;99.90;;;;;;5091807;27;20042;-69
2022/09/20 03:10:30;;;;;;;10.10;6.45;;;12.80;99.90;;;;;;5088850;28;20051;-70
2022/09/20 03:13:11;;;;;;;14.25;6.88;;;12.70;99.90;;;;;;5107637;27;20068;-70
2022/09/20 03:15:59;;;;;;;12.43;6.72;;;12.60;99.90;;;;;;5088871;28;20043;-69
2022/09/20 03:18:33;;;;;;;11.95;6.90;;;12.50;99.90;;;;;;5094106;28;20027;-70
2022/09/20 03:21:04;;;;;;;10.38;6.75;;;12.50;99.90;;;;;;5114778;27;20031;-70
2022/09/20 03:24:00;;;;;;;12.38;7.47;;;12.50;99.90;;;;;;5108038;27;20031;-69
2022/09/20 03:26:47;;;;;;;12.75;7.65;;;12.50;99.90;;;;;;5020122;28;20064;-70
2022/09/20 03:29:50;;;;;;;12.50;7.93;;;12.50;99.90;;;;;;5018369;28;20033;-69
2022/09/20 03:32:27;;;;;;;10.63;7.70;;;12.40;99.90;;;;;;5019310;28;20046;-69
2022/09/20 03:35:25;;;;;;;11.27;8.35;;;12.40;99.90;;;;;;5032794;28;20025;-69
2022/09/20 03:38:00;;;;;;;12.48;8.70;;;12.30;99.90;;;;;;5025991;28;20272;-69
2022/09/20 03:40:40;;;;;;;12.40;8.43;;;12.40;99.90;;;;;;5009437;28;20545;-70
2022/09/20 03:43:40;;;;;;;11.65;8.32;;;12.30;99.90;;;;;;5023502;28;20044;-70
2022/09/20 03:46:17;;;;;;;12.05;8.52;;;12.40;99.90;;;;;;4967441;28;20047;-70
2022/09/20 03:48:48;;;;;;;14.73;9.35;;;12.40;99.90;;;;;;4968114;28;20078;-69
2022/09/20 03:51:47;;;;;;;14.55;9.57;;;12.30;99.90;;;;;;4952128;28;20085;-71
2022/09/20 03:54:37;;;;;;;12.80;9.45;;;12.40;99.90;;;;;;4970024;28;20049;-70
2022/09/20 03:57:26;;;;;;;12.73;9.45;;;12.30;99.90;;;;;;4966939;28;20074;-69
2022/09/20 04:00:03;;;;;;;13.95;8.88;;;12.30;99.90;;;;;;4964097;28;20039;-69
2022/09/20 04:03:01;;;;;;;14.00;9.10;;;12.30;99.90;;;;;;4976522;28;20038;-70
2022/09/20 04:05:45;;;;;;;13.68;9.32;;;12.20;99.90;;;;;;4962068;28;20058;-71
2022/09/20 04:08:18;;;;;;;12.27;9.10;;;12.20;99.90;;;;;;4981062;28;20050;-69
2022/09/20 04:11:41;;;;;;;11.45;8.40;;;12.20;99.90;;;;;;4981150;28;20074;-69
2022/09/20 04:14:33;;;;;;;12.75;9.32;;;12.20;99.90;;;;;;4932539;29;20521;-69
2022/09/20 04:17:40;;;;;;;14.77;9.40;;;12.20;99.90;;;;;;4934519;29;20089;-70
2022/09/20 04:20:31;;;;;;;14.85;9.40;;;12.10;99.90;;;;;;4921775;29;20092;-69
2022/09/20 04:23:06;;;;;;;15.25;9.63;;;12.10;99.90;;;;;;4906600;29;20049;-70
2022/09/20 04:25:40;;;;;;;13.85;9.25;;;12.10;99.90;;;;;;4889250;29;20049;-70
2022/09/20 04:28:19;;;;;;;12.45;9.27;;;12.10;99.90;;;;;;4898564;29;20225;-69
2022/09/20 04:30:46;;;;;;;12.77;9.60;;;12.10;99.90;;;;;;4898511;29;20558;-70
2022/09/20 04:33:19;;;;;;;13.27;9.52;;;12.10;99.90;;;;;;4885082;29;20055;-69
2022/09/20 04:39:27;;;;;;;14.45;9.85;;;12.00;99.90;;;;;;4896774;29;20406;-70
2022/09/20 04:41:59;;;;;;;14.13;9.27;;;12.00;99.90;;;;;;4917442;29;20043;-70
2022/09/20 04:44:47;;;;;;;16.90;10.23;;;11.90;99.90;;;;;;4958173;28;20434;-70
2022/09/20 04:47:37;;;;;;;12.57;9.43;;;11.90;99.90;;;;;;4999365;28;20130;-69
2022/09/20 04:50:06;;;;;;;15.70;10.25;;;11.90;99.90;;;;;;4999821;28;20041;-69
2022/09/20 04:53:02;;;;;;;15.32;10.57;;;11.90;99.90;;;;;;5004193;28;20050;-69
2022/09/20 04:55:31;;;;;;;14.30;10.90;;;11.90;99.90;;;;;;4990046;28;20030;-69
2022/09/20 04:58:18;;;;;;;14.27;9.90;;;11.80;99.90;;;;;;5101370;27;20039;-70
2022/09/20 05:01:15;;;;;;;15.15;10.80;;;11.80;99.90;;;;;;5110460;27;20043;-70
2022/09/20 05:04:18;;;;;;;17.00;10.07;;;11.80;99.90;;;;;;5104479;27;20034;-69
2022/09/20 05:07:29;;;;;;;13.63;9.68;;;11.80;99.90;;;;;;5102931;28;20027;-70
2022/09/20 05:10:20;;;;;;;14.07;9.75;;;11.70;99.90;;;;;;5042679;28;20044;-71
2022/09/20 05:13:23;;;;;;;17.23;10.48;;;11.60;99.90;;;;;;5044543;28;20072;-70
2022/09/20 05:16:17;;;;;;;14.52;10.35;;;11.70;99.90;;;;;;5049884;28;20036;-69
2022/09/20 05:19:04;;;;;;;15.30;10.07;;;11.60;99.90;;;;;;5028897;28;20078;-70
2022/09/20 05:21:57;;;;;;;14.85;10.80;;;11.60;99.90;;;;;;5045041;28;20028;-69
2022/09/20 05:24:51;;;;;;;14.25;10.27;;;11.50;99.90;;;;;;5049721;28;20040;-71
2022/09/20 05:27:40;;;;;;;13.68;9.88;;;11.50;99.90;;;;;;5048813;28;20044;-70
2022/09/20 05:30:36;;;;;;;15.13;10.20;;;11.50;99.90;;;;;;5046786;28;20049;-70
2022/09/20 05:33:28;;;;;;;16.00;10.90;;;11.40;99.90;;;;;;5028465;28;20037;-70
2022/09/20 05:36:22;;;;;;;14.70;10.57;;;11.40;99.90;;;;;;5034275;28;20029;-70
2022/09/20 05:39:03;;;;;;;15.75;10.90;;;11.40;99.90;;;;;;5044173;28;20912;-71
2022/09/20 05:41:34;;;;;;;16.45;11.15;;;11.40;99.90;;;;;;5031506;28;20033;-70
2022/09/20 05:44:18;;;;;;;16.75;11.57;;;11.40;99.90;;;;;;5070322;28;20039;-71
2022/09/20 05:47:10;;;;;;;17.52;11.82;;;11.40;99.90;;;;;;5109387;28;20106;-71
2022/09/20 05:50:04;;;;;;;18.25;12.55;;;11.40;99.90;;;;;;5108002;28;20043;-70
2022/09/20 05:52:38;;;;;;;17.42;11.98;;;11.40;99.90;;;;;;5106966;27;20092;-71
2022/09/20 05:55:25;;;;;;;18.45;12.63;;;11.40;99.90;;;;;;5105861;28;20035;-70
2022/09/20 05:58:10;;;;;;;17.85;11.68;;;11.40;99.90;;;;;;5095645;28;20039;-70
2022/09/20 06:00:52;;;;;;;16.65;11.18;;;11.40;99.90;;;;;;5106759;27;20084;-70
2022/09/20 06:03:42;;;;;;;19.98;12.07;;;11.40;99.90;;;;;;5111437;27;20173;-71
2022/09/20 06:06:11;;;;;;;;;;;11.40;99.90;;;;;;5108913;28;20684;-70
2022/09/20 06:09:01;;;;;;;21.85;12.63;;;11.40;99.90;;;;;;5108020;28;19919;-70
2022/09/20 06:11:45;;;;;;;19.05;12.18;;;11.40;99.90;;;;;;5123690;27;20035;-71
2022/09/20 06:14:17;;;;;;;17.42;12.02;;;11.40;99.90;;;;;;5123922;27;20126;-70
2022/09/20 06:16:47;;;;;;;17.60;12.32;;;11.40;99.90;;;;;;5088383;28;20043;-72
2022/09/20 06:19:16;;;;;;;;;;;11.40;99.90;;;;;;5105078;27;20495;-70
2022/09/20 06:21:56;;;;;;;20.33;12.43;;;11.40;99.90;;;;;;5090174;27;19918;-70
2022/09/20 06:24:37;;;;;;;21.55;13.65;;;11.40;99.90;;;;;;5111489;27;20534;-70
2022/09/20 06:27:09;;;;;;;21.00;13.82;;;11.40;99.90;;;;;;5102655;27;20023;-70
2022/09/20 06:29:39;;;;;;;21.13;14.10;;;11.30;99.90;;;;;;5088664;27;20034;-70
2022/09/20 06:32:05;;;;;;;20.77;14.25;;;11.30;99.90;;;;;;5117121;27;20043;-70
2022/09/20 06:34:31;;;;;;;23.25;14.43;;;11.20;99.90;;;;;;5122711;27;20031;-68
2022/09/20 06:41:27;;;;;;;18.88;12.80;;;11.30;99.90;;;;;;5107593;27;20088;-70
2022/09/20 06:43:44;;;;;;;19.67;13.20;;;11.40;99.90;;;;;;5108075;27;20023;-70
2022/09/20 06:46:12;;;;;;;21.48;13.88;;;11.50;99.90;;;;;;5089089;28;20038;-70
2022/09/20 06:48:38;;;;;;;20.20;13.57;;;11.60;99.90;;;;;;5080932;27;20089;-70
2022/09/20 06:51:06;;;;;;;22.10;13.10;;;11.70;99.90;;;;;;5112004;27;20126;-69
2022/09/20 06:53:35;;;;;;;18.70;12.63;;;11.80;99.90;;;;;;5108318;27;20059;-69
2022/09/20 06:56:02;;;;;;;18.38;12.65;;;11.90;99.90;;;;;;5091194;28;20035;-69
2022/09/20 06:58:28;;;;;;;18.00;12.20;;;12.00;99.90;;;;;;5092946;28;20032;-69
2022/09/20 07:00:53;;;;;;;19.58;12.60;;;12.10;99.90;;;;;;5105257;27;20031;-69
2022/09/20 07:03:19;;;;;;;17.83;12.60;;;12.30;99.90;;;;;;5093966;27;20038;-69
2022/09/20 07:05:45;;;;;;;17.08;11.82;;;12.30;99.90;;;;;;5111075;27;20043;-69
2022/09/20 07:08:11;;;;;;;17.65;12.45;;;12.40;99.90;;;;;;5103181;28;20031;-70
2022/09/20 07:10:37;;;;;;;16.95;11.77;;;12.50;99.90;;;;;;5108970;27;20033;-69
2022/09/20 07:13:03;;;;;;;17.02;12.27;;;12.60;99.90;;;;;;5091676;28;20035;-68
2022/09/20 07:15:33;;;;;;;17.33;11.90;;;12.60;99.90;;;;;;5116867;27;20031;-69
2022/09/20 07:17:59;;;;;;;16.55;11.18;;;12.70;99.90;;;;;;5106668;28;20485;-69
2022/09/20 07:20:25;;;;;;;16.27;11.23;;;12.80;99.90;;;;;;5088935;28;20081;-69
2022/09/20 07:22:52;;;;;;;14.55;10.80;;;12.90;99.90;;;;;;5096376;27;20063;-69
2022/09/20 07:25:18;;;;;;;17.63;11.07;;;13.00;99.90;;;;;;5123324;28;20038;-70
2022/09/20 07:27:45;;;;;;;17.05;10.70;;;13.00;99.90;;;;;;5128933;27;20038;-69
2022/09/20 07:30:13;;;;;;;14.82;9.77;;;13.10;99.90;;;;;;5126087;28;20111;-69
2022/09/20 07:32:39;;;;;;;14.73;8.98;;;13.20;99.90;;;;;;5128844;28;20568;-69
2022/09/20 07:35:07;;;;;;;11.77;7.85;;;13.20;99.90;;;;;;5128739;28;20023;-69
2022/09/20 07:37:33;;;;;;;11.50;7.97;;;13.30;99.90;;;;;;5095041;28;20028;-69
2022/09/20 07:39:59;;;;;;;10.73;7.30;;;13.50;99.90;;;;;;5119543;28;20458;-68
2022/09/20 07:42:25;;;;;;;11.60;7.32;;;13.60;99.90;;;;;;5123557;28;20551;-69
2022/09/20 07:44:51;;;;;;;11.30;6.75;;;13.70;99.90;;;;;;5109025;27;20035;-70
2022/09/20 07:47:17;;;;;;;10.38;7.03;;;13.80;99.90;;;;;;5122719;27;20134;-69
2022/09/20 07:49:43;;;;;;;12.05;7.25;;;13.90;99.90;;;;;;5132944;27;20507;-69
2022/09/20 07:52:10;;;;;;;11.10;6.57;;;13.90;99.90;;;;;;5132983;27;20039;-70
2022/09/20 07:54:35;;;;;;;13.48;7.13;;;14.00;99.90;;;;;;5130605;27;20036;-69
2022/09/20 07:57:02;;;;;;;9.68;6.15;;;14.00;99.90;;;;;;5125729;27;20403;-69
2022/09/20 07:59:27;;;;;;;10.85;7.03;;;14.10;99.90;;;;;;5132775;27;20062;-69
2022/09/20 08:01:53;;;;;;;12.02;6.50;;;14.10;99.90;;;;;;5114318;27;20480;-69
2022/09/20 08:04:19;;;;;;;10.80;7.20;;;14.30;99.90;;;;;;5127896;27;20020;-69
2022/09/20 08:06:45;;;;;;;9.43;6.30;;;14.50;99.90;;;;;;5112040;27;20039;-70
2022/09/20 08:09:13;;;;;;;9.88;6.32;;;14.60;99.90;;;;;;5093549;28;20027;-69
2022/09/20 08:11:40;;;;;;;11.00;6.00;;;14.70;99.90;;;;;;5111859;28;20519;-70
2022/09/20 08:14:07;;;;;;;9.02;6.18;;;14.80;99.90;;;;;;5093367;28;20039;-69
2022/09/20 08:16:38;;;;;;;9.63;6.35;;;14.90;99.90;;;;;;5111073;27;20063;-69
2022/09/20 08:19:04;;;;;;;10.77;6.57;;;14.90;99.90;;;;;;5110900;27;20118;-70
2022/09/20 08:21:31;;;;;;;10.23;5.00;;;15.00;99.90;;;;;;5112560;27;20498;-70
2022/09/20 08:23:58;;;;;;;9.65;5.22;;;15.00;99.90;;;;;;5093157;28;20036;-70
2022/09/20 08:26:26;;;;;;;9.73;5.15;;;15.10;99.90;;;;;;5093777;28;20031;-69
2022/09/20 08:28:54;;;;;;;7.78;4.70;;;15.20;99.90;;;;;;5111226;28;20112;-70
2022/09/20 08:31:23;;;;;;;7.15;3.92;;;15.20;99.90;;;;;;5111448;28;20683;-69
2022/09/20 08:33:49;;;;;;;5.95;3.83;;;15.20;99.90;;;;;;5114509;27;20416;-69
2022/09/20 08:36:18;;;;;;;8.00;4.03;;;15.30;99.90;;;;;;5130772;27;20708;-69
2022/09/20 08:38:45;;;;;;;8.68;4.13;;;15.30;99.90;;;;;;5131987;27;20023;-70
2022/09/20 08:41:19;;;;;;;6.35;3.30;;;15.40;99.90;;;;;;5113446;27;20570;-71
2022/09/20 08:43:53;;;;;;;6.70;3.10;;;15.50;99.90;;;;;;5095764;27;20039;-69
2022/09/20 08:46:27;;;;;;;8.77;3.65;;;15.50;99.90;;;;;;5113256;27;20058;-70
2022/09/20 08:48:56;;;;;;;6.88;2.67;;;15.60;99.90;;;;;;5111059;28;20123;-70
2022/09/20 08:51:24;;;;;;;6.85;2.55;;;15.60;99.90;;;;;;5123570;27;20052;-70
2022/09/20 08:53:53;;;;;;;7.10;2.50;;;15.70;99.90;;;;;;5113252;27;20035;-71
2022/09/20 08:56:20;;;;;;;6.28;2.47;;;15.80;99.90;;;;;;5130470;27;20035;-70
2022/09/20 08:58:46;;;;;;;5.18;2.33;;;15.80;99.90;;;;;;5112861;27;20103;-70
2022/09/20 09:01:23;;;;;;;5.90;2.10;;;15.90;99.90;;;;;;5128504;27;20473;-70
2022/09/20 09:04:15;;;;;;;4.15;1.92;;;15.90;99.90;;;;;;5104305;28;20338;-70
2022/09/20 09:06:41;;;;;;;3.90;1.73;;;16.00;99.90;;;;;;5090595;28;20035;-68
2022/09/20 09:09:22;;;;;;;4.60;1.90;;;16.20;99.90;;;;;;5103407;28;20027;-69
2022/09/20 09:11:48;;;;;;;5.60;1.80;;;16.40;99.90;;;;;;5130175;27;20065;-70
2022/09/20 09:17:21;;;;;;;4.70;2.05;;;16.70;99.90;;;;;;5131452;27;20042;-69
2022/09/20 09:19:54;;;;;;;5.95;2.83;;;16.80;99.90;;;;;;5110192;27;20115;-70
2022/09/20 09:22:28;;;;;;;4.05;2.00;;;16.80;99.50;;;;;;5110445;28;20040;-69
2022/09/20 09:25:20;;;;;;;4.53;2.20;;;16.70;99.90;;;;;;5092179;28;20112;-69
2022/09/20 09:28:02;;;;;;;6.70;2.28;;;16.80;99.20;;;;;;5110327;28;20028;-70
2022/09/20 09:30:30;;;;;;;5.63;2.65;;;16.80;99.50;;;;;;5101906;27;20050;-70
2022/09/20 09:33:21;;;;;;;5.30;2.63;;;16.90;99.30;;;;;;5113720;27;20047;-69
2022/09/20 09:36:07;;;;;;;5.07;2.92;;;17.10;98.30;;;;;;5116193;27;20031;-70
2022/09/20 09:38:38;;;;;;;4.22;2.83;;;17.20;97.20;;;;;;5112084;27;20527;-71
2022/09/20 09:41:25;;;;;;;6.20;3.10;;;17.40;96.40;;;;;;5129055;27;20046;-70
2022/09/20 09:44:01;;;;;;;4.43;2.75;;;17.40;95.90;;;;;;5071647;28;20040;-70
2022/09/20 09:46:33;;;;;;;6.32;3.53;;;17.40;96.30;;;;;;5071400;28;20028;-70
2022/09/20 09:49:17;;;;;;;7.13;3.60;;;17.30;95.50;;;;;;5090313;27;20027;-70
2022/09/20 09:52:00;;;;;;;5.18;3.05;;;17.30;94.20;;;;;;5130667;27;20047;-70
2022/09/20 09:54:32;;;;;;;5.22;2.90;;;17.20;94.20;;;;;;5130597;27;20039;-69
2022/09/20 09:57:03;;;;;;;4.90;2.70;;;17.10;93.10;;;;;;5130140;27;20035;-70
2022/09/20 09:59:56;;;;;;;4.47;2.58;;;17.10;94.70;;;;;;5108445;27;20392;-70
2022/09/20 10:02:59;;;;;;;5.63;2.75;;;17.10;93.40;;;;;;5127317;27;20032;-70
2022/09/20 10:05:45;;;;;;;4.63;2.58;;;17.10;94.40;;;;;;5111795;27;20041;-70
2022/09/20 10:08:20;;;;;;;6.00;2.67;;;17.30;93.00;;;;;;5130115;27;20035;-70
2022/09/20 10:11:07;;;;;;;4.47;2.28;;;17.40;92.30;;;;;;5110109;27;20562;-70
2022/09/20 10:13:46;;;;;;;3.80;2.20;;;17.60;93.10;;;;;;5129307;27;20583;-71
2022/09/20 10:16:49;;;;;;;4.28;2.42;;;17.80;91.90;;;;;;5113750;27;20123;-70
2022/09/20 10:19:39;;;;;;;6.38;2.65;;;17.90;92.70;;;;;;5108840;28;20065;-70
2022/09/20 10:22:18;;;;;;;4.93;2.72;;;17.90;92.00;;;;;;5070691;28;20612;-70
2022/09/20 10:25:14;;;;;;;4.25;2.20;;;17.90;91.70;;;;;;5091965;27;20020;-70
2022/09/20 10:28:20;;;;;;;3.35;1.70;;;17.90;92.50;;;;;;5111275;27;20039;-70
2022/09/20 10:30:55;;;;;;;4.90;1.77;;;17.90;90.50;;;;;;5098166;27;20039;-71
2022/09/20 10:33:46;;;;;;;2.92;1.13;;;17.90;88.80;;;;;;5114179;27;20046;-70
2022/09/20 10:36:15;;;;;;;4.05;1.33;;;17.90;87.20;;;;;;5103664;27;20041;-70
2022/09/20 10:39:01;;;;;;;2.23;1.20;;;17.90;83.20;;;;;;5110958;27;20031;-70
2022/09/20 10:44:45;;;;;;;2.40;1.10;;;18.10;82.30;;;;;;5123310;27;20039;-70
2022/09/20 10:47:20;;;;;;;2.80;1.40;;;18.20;82.00;;;;;;5090327;28;20502;-70
2022/09/20 10:49:49;;;;;;;3.40;1.63;;;18.40;82.20;;;;;;5090022;27;20052;-70
2022/09/20 10:52:30;;;;;;;3.35;1.60;;;18.40;80.20;;;;;;5110315;27;20039;-70
2022/09/20 10:54:58;;;;;;;3.72;1.50;;;18.50;79.50;;;;;;5102239;27;20027;-70
2022/09/20 10:58:00;;;;;;;3.30;1.40;;;18.60;80.90;;;;;;5104900;27;20027;-71
2022/09/20 11:01:14;;;;;;;3.70;1.70;;;18.60;79.30;;;;;;5129300;27;20046;-71
2022/09/20 11:04:17;;;;;;;3.97;1.90;;;18.50;79.20;;;;;;5057119;28;20044;-70
2022/09/20 11:07:25;;;;;;;3.55;1.60;;;18.30;80.00;;;;;;5065435;28;20557;-71
2022/09/20 11:10:12;;;;;;;3.85;1.40;;;18.30;82.00;;;;;;5005164;28;20040;-69
2022/09/20 11:12:52;;;;;;;3.45;1.58;;;18.30;81.80;;;;;;5004316;28;20057;-70
2022/09/20 11:15:22;;;;;;;3.38;1.80;;;18.20;79.90;;;;;;5005297;28;20034;-70
2022/09/20 11:18:11;;;;;;;4.38;2.10;;;18.20;79.30;;;;;;5003743;28;20038;-71
2022/09/20 11:20:49;;;;;;;4.18;1.85;;;18.20;78.50;;;;;;4997910;28;20066;-70
2022/09/20 11:23:51;;;;;;;3.95;1.92;;;18.30;78.90;;;;;;5005435;28;20412;-69
2022/09/20 11:26:38;;;;;;;3.75;1.60;;;18.50;79.70;;;;;;4996763;28;20072;-70
2022/09/20 11:29:31;;;;;;;5.70;1.85;;;18.90;81.40;;;;;;5004375;28;20037;-71
2022/09/20 11:32:13;;;;;;;3.30;1.77;;;19.20;77.00;;;;;;5000949;28;20074;-69
2022/09/20 11:35:09;;;;;;;3.20;1.73;;;19.30;75.10;;;;;;4969513;28;20048;-70
2022/09/20 11:37:40;;;;;;;3.75;1.85;;;19.60;73.20;;;;;;4952168;28;20056;-70
2022/09/20 11:40:26;;;;;;;5.38;1.73;;;20.30;69.30;;;;;;5037241;28;20901;-69
2022/09/20 11:42:56;;;;;;;3.58;1.80;;;20.00;70.50;;;;;;5066518;28;20038;-70
2022/09/20 11:45:22;;;;;;;;;;;19.90;69.70;;;;;;5088549;28;20024;-70
2022/09/20 11:47:53;;;;;;;2.58;1.50;;;19.70;70.80;;;;;;5110927;28;19964;-69
2022/09/20 11:50:37;;;;;;;4.28;1.70;;;19.50;71.60;;;;;;5124820;28;20134;-69
2022/09/20 11:53:12;;;;;;;3.08;1.40;;;19.10;71.50;;;;;;5078456;28;20036;-69
2022/09/20 11:56:16;;;;;;;4.93;1.80;;;18.80;74.80;;;;;;5103139;28;20480;-69
2022/09/20 11:58:48;;;;;;;4.03;1.58;;;18.40;74.20;;;;;;5065989;28;20048;-70
2022/09/20 12:01:24;;;;;;;3.17;1.35;;;18.20;75.70;;;;;;5089738;28;20057;-69
2022/09/20 12:03:53;;;;;;;4.63;1.35;;;18.00;76.70;;;;;;5089412;28;20036;-70
2022/09/20 12:06:35;;;;;;;2.87;1.33;;;17.90;77.50;;;;;;5126635;28;20650;-70
2022/09/20 12:09:06;;;;;;;3.70;1.55;;;17.80;77.00;;;;;;5117601;28;20028;-72
2022/09/20 12:11:34;;;;;;;4.03;1.20;;;17.70;75.70;;;;;;5089496;28;20035;-70
2022/09/20 12:14:04;;;;;;;4.33;1.00;;;17.70;77.10;;;;;;5111058;28;20560;-70
2022/09/20 12:16:45;;;;;;;1.58;0.90;;;17.80;79.00;;;;;;5128672;28;20348;-70
2022/09/20 12:19:13;;;;;;;3.15;1.30;;;18.00;78.20;;;;;;5128342;28;20035;-70
2022/09/20 12:21:57;;;;;;;3.58;1.30;;;18.20;75.00;;;;;;5096942;28;20027;-69
2022/09/20 12:24:28;;;;;;;1.98;0.90;;;18.20;74.90;;;;;;5114168;28;20049;-69
2022/09/20 12:26:56;;;;;;;2.53;1.30;;;18.20;73.90;;;;;;5109775;28;20795;-69
2022/09/20 12:29:22;;;;;;;3.97;1.17;;;18.10;75.00;;;;;;5110644;27;20027;-70
2022/09/20 12:31:49;;;;;;;1.77;1.10;;;18.00;75.80;;;;;;5132106;27;20030;-70
2022/09/20 12:34:18;;;;;;;3.55;1.42;;;17.90;76.40;;;;;;5110506;27;20039;-70
2022/09/20 12:37:03;;;;;;;4.15;1.33;;;17.90;76.30;;;;;;5112717;27;20707;-69
2022/09/20 12:39:38;;;;;;;3.53;1.40;;;17.90;76.70;;;;;;5100744;28;20081;-70
2022/09/20 12:42:09;;;;;;;1.80;0.73;;;17.80;77.80;;;;;;5090802;28;20157;-70
2022/09/20 12:44:50;;;;;;;4.32;0.80;;;17.80;76.70;;;;;;5114035;27;20051;-69
2022/09/20 12:47:26;;;;;;;2.13;0.90;;;17.80;75.20;;;;;;5111348;28;20603;-69
2022/09/20 12:52:56;;;;;;;1.73;0.85;;;17.90;73.80;;;;;;5115822;27;20046;-70
2022/09/20 12:55:28;;;;;;;1.73;0.80;;;17.80;74.60;;;;;;5126439;27;20576;-70
2022/09/20 12:58:13;;;;;;;1.58;0.75;;;17.80;75.70;;;;;;5092493;28;20027;-69
2022/09/20 13:00:46;;;;;;;2.30;0.90;;;17.80;73.90;;;;;;5092499;28;20093;-70
2022/09/20 13:03:20;;;;;;;1.88;0.77;;;17.90;75.40;;;;;;5119484;27;20027;-70
2022/09/20 13:05:51;;;;;;;2.65;0.80;;;17.90;75.90;;;;;;5129009;27;20027;-69
2022/09/20 13:08:17;;;;;;;1.50;0.80;;;17.90;76.70;;;;;;5122983;27;20473;-69
2022/09/20 13:11:05;;;;;;;2.95;0.88;;;17.80;75.70;;;;;;5092401;28;20031;-69
2022/09/20 13:13:34;;;;;;;2.67;0.85;;;17.80;75.00;;;;;;5064118;27;20086;-69
2022/09/20 13:16:04;;;;;;;1.50;0.82;;;17.80;77.00;;;;;;5131088;27;20096;-69
2022/09/20 13:18:31;;;;;;;2.83;0.93;;;17.70;76.20;;;;;;5131431;27;20027;-69
2022/09/20 13:21:02;;;;;;;1.63;0.80;;;17.70;76.00;;;;;;5131315;27;20028;-70
2022/09/20 13:23:31;;;;;;;3.00;1.00;;;17.70;77.50;;;;;;5113223;27;20464;-68
2022/09/20 13:25:57;;;;;;;3.40;1.10;;;17.60;75.60;;;;;;5097183;28;20063;-69
2022/09/20 13:28:33;;;;;;;2.08;1.00;;;17.60;75.70;;;;;;5071730;28;20105;-69
2022/09/20 13:31:24;;;;;;;3.65;1.20;;;17.70;75.40;;;;;;5080544;28;20027;-69
2022/09/20 13:33:50;;;;;;;3.45;1.63;;;17.80;75.60;;;;;;5098174;27;20164;-70
2022/09/20 13:36:28;;;;;;;2.40;1.00;;;17.80;75.90;;;;;;5127690;27;20038;-69
2022/09/20 13:38:57;;;;;;;4.05;1.40;;;17.90;74.50;;;;;;5109379;27;20035;-69
2022/09/20 13:41:27;;;;;;;2.85;0.90;;;18.10;74.80;;;;;;5129948;27;20025;-69
2022/09/20 13:43:53;;;;;;;2.33;1.05;;;18.30;75.40;;;;;;5090146;28;20490;-69
2022/09/20 13:46:27;;;;;;;2.75;1.20;;;18.50;74.50;;;;;;5089742;28;20028;-69
2022/09/20 13:49:08;;;;;;;2.50;1.10;;;18.60;73.80;;;;;;5109505;27;20540;-70
2022/09/20 13:51:34;;;;;;;3.15;1.10;;;18.80;72.00;;;;;;5091423;28;20520;-69
2022/09/20 13:54:18;;;;;;;2.63;0.82;;;18.80;70.90;;;;;;5091410;28;20059;-69